createdAt,value
2022-08-07T00:01:05.082Z,71.49
2022-08-07T00:03:51.669Z,71.98
2022-08-07T00:06:18.295Z,71.94
2022-08-07T00:08:56.095Z,71.21
2022-08-07T00:11:33.165Z,71.38
2022-08-07T00:14:00.164Z,72.05
2022-08-07T00:16:28.618Z,72.22
2022-08-07T00:18:55.448Z,73.38
2022-08-07T00:21:56.195Z,73.58
2022-08-07T00:24:09.077Z,72.70
2022-08-07T00:26:49.139Z,73.17
2022-08-07T00:29:26.001Z,73.08
2022-08-07T00:32:01.881Z,72.70
2022-08-07T00:34:29.070Z,73.21
2022-08-07T00:36:56.402Z,73.22
2022-08-07T00:39:23.091Z,73.33
2022-08-07T00:42:01.359Z,72.95
2022-08-07T00:44:31.310Z,73.01
2022-08-07T00:46:59.808Z,73.12
2022-08-07T00:50:19.005Z,73.87
2022-08-07T00:52:14.015Z,73.85
2022-08-07T00:54:44.408Z,73.57
2022-08-07T00:57:12.513Z,73.08
2022-08-07T00:59:39.351Z,72.99
2022-08-07T01:02:14.078Z,73.45
2022-08-07T01:04:58.429Z,73.68
2022-08-07T01:07:27.663Z,73.66
2022-08-07T01:10:06.945Z,73.82
2022-08-07T01:12:54.042Z,73.20
2022-08-07T01:16:00.516Z,73.58
2022-08-07T01:18:17.108Z,73.43
2022-08-07T01:20:57.487Z,73.31
2022-08-07T01:23:46.640Z,73.21
2022-08-07T01:26:20.267Z,74.00
2022-08-07T01:28:50.789Z,73.38
2022-08-07T01:31:41.867Z,73.62
2022-08-07T01:34:14.223Z,74.12
2022-08-07T01:36:44.090Z,73.76
2022-08-07T01:39:15.368Z,74.29
2022-08-07T01:42:01.705Z,74.85
2022-08-07T01:44:36.047Z,75.05
2022-08-07T01:47:14.677Z,74.33
2022-08-07T01:49:53.564Z,74.75
2022-08-07T01:52:26.607Z,74.29
2022-08-07T01:54:56.241Z,73.90
2022-08-07T01:58:05.654Z,74.20
2022-08-07T02:00:28.896Z,74.20
2022-08-07T02:03:11.698Z,74.06
2022-08-07T02:06:00.035Z,74.41
2022-08-07T02:08:35.532Z,74.08
2022-08-07T02:11:03.824Z,73.32
2022-08-07T02:13:57.981Z,74.29
2022-08-07T02:16:28.736Z,74.34
2022-08-07T02:19:05.651Z,74.46
2022-08-07T02:21:55.328Z,75.18
2022-08-07T02:24:24.683Z,75.69
2022-08-07T02:26:52.530Z,75.19
2022-08-07T02:29:21.918Z,75.17
2022-08-07T02:31:50.736Z,75.50
2022-08-07T02:34:20.476Z,75.56
2022-08-07T02:36:52.436Z,75.91
2022-08-07T02:39:43.783Z,75.50
2022-08-07T02:42:16.287Z,75.34
2022-08-07T02:44:48.883Z,75.65
2022-08-07T02:47:23.362Z,76.29
2022-08-07T02:49:58.754Z,75.82
2022-08-07T02:52:52.874Z,76.27
2022-08-07T02:55:27.631Z,75.99
2022-08-07T02:58:13.449Z,76.28
2022-08-07T03:00:47.437Z,76.43
2022-08-07T03:03:21.170Z,76.76
2022-08-07T03:05:53.599Z,76.05
2022-08-07T03:08:26.936Z,75.86
2022-08-07T03:10:58.232Z,76.21
2022-08-07T03:13:39.039Z,76.36
2022-08-07T03:16:16.815Z,76.30
2022-08-07T03:18:45.035Z,76.32
2022-08-07T03:21:18.950Z,76.66
2022-08-07T03:24:20.999Z,76.12
2022-08-07T03:26:51.001Z,75.94
2022-08-07T03:29:27.605Z,75.28
2022-08-07T03:31:56.419Z,75.31
2022-08-07T03:34:27.328Z,75.60
2022-08-07T03:36:59.875Z,74.84
2022-08-07T03:40:00.021Z,74.94
2022-08-07T03:42:28.609Z,74.75
2022-08-07T03:44:58.089Z,74.81
2022-08-07T03:47:28.035Z,74.19
2022-08-07T03:50:00.065Z,74.49
2022-08-07T03:52:34.274Z,74.75
2022-08-07T03:55:07.170Z,74.92
2022-08-07T03:58:34.089Z,75.19
2022-08-07T04:00:33.851Z,75.61
2022-08-07T04:03:04.048Z,75.64
2022-08-07T04:05:40.131Z,75.14
2022-08-07T04:08:16.230Z,74.99
2022-08-07T04:10:54.074Z,74.92
2022-08-07T04:14:14.030Z,74.50
2022-08-07T04:16:31.370Z,74.86
2022-08-07T04:19:01.785Z,74.57
2022-08-07T04:21:33.557Z,73.96
2022-08-07T04:24:07.911Z,72.34
2022-08-07T04:26:39.019Z,69.23
2022-08-07T04:29:10.865Z,67.97
2022-08-07T04:32:03.253Z,66.29
2022-08-07T04:34:32.956Z,64.71
2022-08-07T04:37:01.328Z,62.59
2022-08-07T04:39:29.310Z,61.37
2022-08-07T04:42:04.051Z,58.73
2022-08-07T04:44:31.329Z,55.28
2022-08-07T04:47:23.552Z,54.90
2022-08-07T04:50:11.352Z,56.43
2022-08-07T04:52:58.893Z,54.42
2022-08-07T04:58:16.494Z,56.82
2022-08-07T04:58:54.590Z,53.67
2022-08-07T05:01:30.266Z,54.99
2022-08-07T05:04:33.926Z,55.42
2022-08-07T05:07:20.977Z,52.53
2022-08-07T05:10:04.560Z,51.58
2022-08-07T05:13:09.767Z,49.91
2022-08-07T05:15:50.619Z,46.72
2022-08-07T05:18:27.433Z,48.04
2022-08-07T05:21:00.519Z,46.28
2022-08-07T05:23:36.075Z,45.98
2022-08-07T05:26:11.774Z,45.75
2022-08-07T05:28:48.752Z,45.34
2022-08-07T05:31:22.999Z,41.79
2022-08-07T05:34:04.620Z,42.60
2022-08-07T05:36:39.069Z,42.46
2022-08-07T05:40:06.971Z,42.02
2022-08-07T05:42:05.351Z,40.85
2022-08-07T05:44:46.624Z,40.57
2022-08-07T05:47:37.892Z,39.95
2022-08-07T05:50:12.901Z,40.18
2022-08-07T05:52:40.185Z,39.06
2022-08-07T05:55:10.957Z,40.83
2022-08-07T05:57:42.944Z,40.61
2022-08-07T06:00:16.317Z,41.83
2022-08-07T06:02:51.618Z,39.03
2022-08-07T06:05:25.989Z,38.55
2022-08-07T06:08:14.847Z,41.57
2022-08-07T06:10:51.248Z,39.98
2022-08-07T06:13:19.787Z,38.63
2022-08-07T06:16:08.502Z,37.75
2022-08-07T06:18:39.511Z,36.52
2022-08-07T06:22:15.241Z,38.48
2022-08-07T06:24:46.013Z,37.21
2022-08-07T06:26:45.048Z,38.17
2022-08-07T06:29:13.870Z,38.12
2022-08-07T06:31:49.964Z,37.78
2022-08-07T06:34:20.865Z,38.29
2022-08-07T06:36:52.178Z,36.82
2022-08-07T06:40:17.640Z,37.45
2022-08-07T06:42:37.300Z,37.69
2022-08-07T06:45:24.813Z,38.82
2022-08-07T06:47:57.614Z,38.49
2022-08-07T06:50:30.462Z,41.05
2022-08-07T06:52:59.292Z,39.60
2022-08-07T06:56:00.120Z,38.96
2022-08-07T06:58:21.560Z,40.08
2022-08-07T07:00:59.854Z,39.08
2022-08-07T07:03:49.088Z,38.52
2022-08-07T07:06:14.221Z,37.37
2022-08-07T07:08:50.553Z,38.04
2022-08-07T07:12:07.723Z,36.52
2022-08-07T07:14:08.333Z,38.34
2022-08-07T07:16:49.607Z,37.73
2022-08-07T07:19:57.263Z,39.32
2022-08-07T07:22:35.783Z,39.19
2022-08-07T07:25:02.848Z,39.46
2022-08-07T07:27:55.372Z,39.42
2022-08-07T07:30:32.805Z,39.71
2022-08-07T07:33:11.612Z,40.48
2022-08-07T07:35:44.061Z,40.10
2022-08-07T07:38:28.985Z,39.53
2022-08-07T07:41:02.264Z,40.33
2022-08-07T07:43:47.753Z,40.10
2022-08-07T07:46:40.465Z,40.78
2022-08-07T07:50:15.885Z,42.52
2022-08-07T07:51:57.904Z,41.28
2022-08-07T07:54:27.500Z,40.42
2022-08-07T07:56:57.463Z,41.08
2022-08-07T07:59:52.703Z,40.43
2022-08-07T08:02:34.306Z,41.68
2022-08-07T08:05:04.437Z,40.32
2022-08-07T08:07:35.706Z,40.80
2022-08-07T08:10:14.769Z,39.39
2022-08-07T08:13:00.165Z,39.14
2022-08-07T08:15:57.497Z,40.10
2022-08-07T08:18:24.390Z,39.41
2022-08-07T08:20:51.830Z,38.93
2022-08-07T08:23:41.282Z,40.07
2022-08-07T08:26:28.116Z,39.71
2022-08-07T08:28:56.748Z,39.18
2022-08-07T08:31:59.164Z,37.55
2022-08-07T08:34:32.717Z,39.38
2022-08-07T08:37:01.081Z,37.38
2022-08-07T08:39:39.350Z,37.14
2022-08-07T08:42:26.903Z,37.99
2022-08-07T08:45:12.989Z,37.51
2022-08-07T08:47:55.114Z,38.05
2022-08-07T08:50:28.371Z,38.47
2022-08-07T08:53:29.383Z,38.56
2022-08-07T08:56:11.272Z,38.02
2022-08-07T08:58:58.025Z,36.85
2022-08-07T09:01:39.990Z,36.64
2022-08-07T09:04:26.071Z,35.28
2022-08-07T09:07:06.080Z,35.51
2022-08-07T09:10:03.190Z,36.46
2022-08-07T09:13:09.530Z,36.45
2022-08-07T09:16:21.618Z,35.62
2022-08-07T09:18:58.573Z,33.90
2022-08-07T09:21:57.811Z,36.30
2022-08-07T09:24:56.096Z,35.57
2022-08-07T09:28:00.268Z,37.37
2022-08-07T09:30:49.686Z,36.30
2022-08-07T09:33:58.285Z,37.20
2022-08-07T09:36:37.015Z,35.10
2022-08-07T09:39:52.565Z,35.01
2022-08-07T09:42:24.922Z,36.35
2022-08-07T09:47:26.254Z,35.50
2022-08-07T09:48:14.626Z,34.58
2022-08-07T09:51:14.809Z,35.77
2022-08-07T09:54:03.693Z,35.82
2022-08-07T09:56:46.417Z,35.34
2022-08-07T09:59:44.670Z,35.12
2022-08-07T10:02:55.838Z,36.74
2022-08-07T10:06:00.826Z,35.21
2022-08-07T10:08:52.728Z,35.02
2022-08-07T10:12:01.635Z,35.05
2022-08-07T10:14:31.272Z,34.65
2022-08-07T10:17:17.090Z,33.26
2022-08-07T10:20:21.838Z,33.24
2022-08-07T10:23:10.675Z,34.38
2022-08-07T10:26:24.742Z,34.04
2022-08-07T10:29:06.299Z,35.06
2022-08-07T10:32:37.135Z,34.09
2022-08-07T10:35:55.837Z,33.85
2022-08-07T10:38:35.754Z,34.40
2022-08-07T10:41:46.243Z,33.55
2022-08-07T10:44:33.872Z,32.87
2022-08-07T10:47:17.419Z,33.86
2022-08-07T10:49:51.217Z,34.10
2022-08-07T10:52:34.102Z,33.29
2022-08-07T10:55:26.610Z,34.57
2022-08-07T10:58:33.384Z,32.83
2022-08-07T11:01:12.705Z,32.89
2022-08-07T11:03:54.870Z,32.95
2022-08-07T11:06:50.401Z,32.64
2022-08-07T11:10:09.745Z,34.15
2022-08-07T11:12:31.649Z,34.07
2022-08-07T11:15:14.796Z,32.93
2022-08-07T11:17:56.609Z,32.98
2022-08-07T11:20:52.686Z,32.80
2022-08-07T11:23:30.278Z,33.06
2022-08-07T11:26:24.721Z,32.30
2022-08-07T11:29:13.064Z,32.75
2022-08-07T11:32:15.183Z,32.85
2022-08-07T11:34:59.615Z,32.71
2022-08-07T11:37:57.880Z,33.43
2022-08-07T11:40:55.523Z,33.74
2022-08-07T11:43:29.747Z,33.72
2022-08-07T11:46:11.878Z,33.06
2022-08-07T11:49:27.765Z,32.32
2022-08-07T11:52:35.676Z,32.92
2022-08-07T11:55:18.815Z,32.27
2022-08-07T11:58:40.806Z,31.52
2022-08-07T12:01:24.904Z,32.60
2022-08-07T12:04:17.469Z,32.07
2022-08-07T12:07:03.036Z,32.27
2022-08-07T12:09:52.776Z,31.25
2022-08-07T12:12:28.288Z,32.88
2022-08-07T12:15:03.912Z,32.00
2022-08-07T12:17:55.978Z,31.03
2022-08-07T12:20:46.239Z,32.78
2022-08-07T12:24:07.523Z,33.90
2022-08-07T12:26:46.883Z,34.38
2022-08-07T12:29:44.046Z,34.56
2022-08-07T12:32:24.044Z,34.86
2022-08-07T12:34:56.166Z,34.77
2022-08-07T12:37:27.841Z,35.02
2022-08-07T12:40:44.129Z,34.50
2022-08-07T12:43:03.162Z,34.33
2022-08-07T12:46:26.617Z,34.36
2022-08-07T12:49:10.130Z,33.31
2022-08-07T12:52:13.652Z,33.25
2022-08-07T12:55:09.680Z,33.63
2022-08-07T12:58:01.395Z,32.73
2022-08-07T13:00:49.726Z,32.55
2022-08-07T13:03:54.995Z,32.29
2022-08-07T13:06:27.155Z,31.14
2022-08-07T13:10:20.718Z,32.61
2022-08-07T13:12:16.184Z,30.97
2022-08-07T13:14:59.345Z,31.47
2022-08-07T13:17:40.782Z,30.55
2022-08-07T13:20:18.876Z,30.44
2022-08-07T13:22:55.837Z,31.27
2022-08-07T13:25:34.900Z,30.30
2022-08-07T13:28:13.656Z,31.18
2022-08-07T13:30:52.193Z,30.48
2022-08-07T13:34:30.594Z,29.96
2022-08-07T13:36:30.503Z,31.27
2022-08-07T13:39:13.185Z,30.00
2022-08-07T13:41:57.577Z,30.33
2022-08-07T13:44:36.807Z,31.14
2022-08-07T13:47:09.429Z,30.50
2022-08-07T13:50:35.062Z,30.89
2022-08-07T13:52:39.560Z,29.72
2022-08-07T13:55:25.876Z,30.28
2022-08-07T13:58:28.032Z,29.97
2022-08-07T14:01:09.182Z,30.68
2022-08-07T14:04:05.445Z,30.76
2022-08-07T14:06:36.914Z,30.98
2022-08-07T14:09:06.407Z,30.92
2022-08-07T14:12:00.092Z,30.31
2022-08-07T14:14:42.005Z,29.87
2022-08-07T14:17:32.500Z,30.39
2022-08-07T14:20:42.160Z,29.79
2022-08-07T14:23:08.551Z,29.98
2022-08-07T14:25:45.975Z,29.71
2022-08-07T14:28:17.584Z,29.65
2022-08-07T14:30:52.342Z,29.42
2022-08-07T14:33:22.293Z,29.87
2022-08-07T14:35:55.751Z,28.91
2022-08-07T14:38:30.813Z,29.74
2022-08-07T14:41:34.197Z,29.92
2022-08-07T14:44:17.852Z,30.22
2022-08-07T14:46:52.057Z,30.73
2022-08-07T14:49:57.007Z,30.48
2022-08-07T14:52:27.737Z,30.00
2022-08-07T14:54:59.017Z,31.28
2022-08-07T14:57:58.701Z,31.90
2022-08-07T15:00:29.684Z,30.95
2022-08-07T15:02:59.382Z,30.34
2022-08-07T15:05:30.338Z,30.56
2022-08-07T15:08:04.594Z,30.65
2022-08-07T15:10:32.264Z,29.97
2022-08-07T15:13:05.741Z,29.94
2022-08-07T15:15:43.034Z,31.10
2022-08-07T15:18:28.534Z,30.72
2022-08-07T15:21:08.011Z,30.78
2022-08-07T15:25:13.485Z,31.22
2022-08-07T15:26:35.331Z,31.85
2022-08-07T15:32:01.767Z,31.85
2022-08-07T15:34:37.638Z,31.29
2022-08-07T15:37:27.375Z,31.23
2022-08-07T15:39:59.161Z,31.83
2022-08-07T15:42:43.260Z,31.78
2022-08-07T15:45:25.710Z,31.75
2022-08-07T15:51:09.335Z,30.45
2022-08-07T15:53:53.205Z,30.49
2022-08-07T15:56:33.154Z,31.02
2022-08-07T15:59:04.128Z,31.73
2022-08-07T16:01:39.335Z,31.04
2022-08-07T16:04:15.314Z,30.88
2022-08-07T16:06:52.860Z,30.87
2022-08-07T16:09:42.488Z,30.98
2022-08-07T16:12:29.133Z,30.53
2022-08-07T16:15:05.997Z,31.14
2022-08-07T16:18:01.740Z,31.27
2022-08-07T16:20:43.979Z,30.87
2022-08-07T16:23:58.985Z,30.40
2022-08-07T16:26:30.951Z,30.95
2022-08-07T16:30:11.186Z,31.63
2022-08-07T16:32:32.870Z,31.40
2022-08-07T16:35:51.972Z,31.73
2022-08-07T16:38:29.605Z,31.91
2022-08-07T16:41:19.481Z,31.87
2022-08-07T16:44:53.608Z,32.22
2022-08-07T16:47:45.444Z,31.78
2022-08-07T16:50:28.132Z,32.17
2022-08-07T16:53:55.522Z,32.22
2022-08-07T16:56:42.524Z,32.38
2022-08-07T16:59:24.579Z,32.75
2022-08-07T17:02:52.248Z,32.33
2022-08-07T17:06:01.765Z,32.32
2022-08-07T17:08:09.216Z,32.43
2022-08-07T17:10:54.829Z,32.52
2022-08-07T17:13:40.329Z,32.19
2022-08-07T17:16:33.325Z,32.56
2022-08-07T17:19:24.003Z,32.43
2022-08-07T17:22:16.519Z,32.69
2022-08-07T17:25:03.732Z,32.64
2022-08-07T17:27:58.252Z,32.73
2022-08-07T17:30:32.091Z,32.28
2022-08-07T17:34:09.248Z,33.13
2022-08-07T17:36:00.822Z,33.25
2022-08-07T17:38:35.291Z,33.17
2022-08-07T17:42:02.700Z,33.71
2022-08-07T17:44:41.449Z,33.11
2022-08-07T17:47:16.550Z,33.74
2022-08-07T17:50:16.534Z,33.04
2022-08-07T17:53:06.023Z,33.76
2022-08-07T17:55:54.732Z,33.72
2022-08-07T17:59:06.601Z,33.70
2022-08-07T18:01:56.572Z,34.46
2022-08-07T18:04:34.452Z,34.24
2022-08-07T18:07:19.488Z,34.45
2022-08-07T18:10:06.327Z,34.37
2022-08-07T18:13:09.989Z,34.72
2022-08-07T18:15:39.331Z,35.48
2022-08-07T18:18:46.612Z,35.36
2022-08-07T18:21:42.040Z,35.54
2022-08-07T18:24:35.308Z,35.21
2022-08-07T18:27:17.279Z,35.88
2022-08-07T18:30:07.142Z,35.77
2022-08-07T18:33:12.223Z,36.26
2022-08-07T18:36:14.056Z,36.26
2022-08-07T18:40:05.280Z,36.52
2022-08-07T18:42:08.263Z,37.37
2022-08-07T18:45:44.772Z,37.80
2022-08-07T18:48:02.870Z,38.01
2022-08-07T18:50:47.500Z,38.15
2022-08-07T18:53:36.691Z,38.79
2022-08-07T18:56:35.395Z,39.33
2022-08-07T18:59:47.186Z,39.92
2022-08-07T19:02:32.137Z,40.12
2022-08-07T19:05:15.093Z,40.54
2022-08-07T19:08:05.198Z,40.71
2022-08-07T19:10:51.652Z,40.78
2022-08-07T19:13:50.239Z,40.78
2022-08-07T19:17:06.088Z,40.84
2022-08-07T19:19:54.269Z,41.27
2022-08-07T19:22:30.830Z,41.98
2022-08-07T19:24:58.908Z,42.63
2022-08-07T19:28:57.106Z,43.08
2022-08-07T19:31:02.150Z,43.32
2022-08-07T19:33:13.239Z,44.18
2022-08-07T19:35:46.809Z,44.20
2022-08-07T19:38:17.691Z,43.88
2022-08-07T19:40:50.038Z,44.20
2022-08-07T19:43:21.573Z,44.67
2022-08-07T19:45:53.118Z,44.94
2022-08-07T19:48:53.647Z,45.32
2022-08-07T19:51:50.508Z,45.54
2022-08-07T19:54:30.888Z,45.93
2022-08-07T19:58:01.224Z,46.01
2022-08-07T19:59:54.229Z,46.30
2022-08-07T20:02:33.572Z,46.88
2022-08-07T20:05:07.850Z,47.55
2022-08-07T20:07:47.320Z,47.75
2022-08-07T20:10:37.128Z,47.86
2022-08-07T20:13:26.978Z,48.34
2022-08-07T20:15:57.737Z,48.17
2022-08-07T20:18:33.024Z,48.28
2022-08-07T20:21:22.027Z,48.19
2022-08-07T20:23:57.629Z,48.05
2022-08-07T20:26:32.240Z,48.64
2022-08-07T20:29:46.701Z,48.65
2022-08-07T20:31:59.703Z,49.40
2022-08-07T20:34:49.722Z,49.88
2022-08-07T20:37:21.799Z,50.33
2022-08-07T20:40:02.158Z,50.32
2022-08-07T20:42:33.367Z,50.51
2022-08-07T20:45:01.279Z,50.42
2022-08-07T20:47:55.984Z,50.49
2022-08-07T20:50:20.795Z,50.80
2022-08-07T20:52:51.490Z,50.84
2022-08-07T20:55:25.469Z,51.55
2022-08-07T20:58:03.864Z,51.72
2022-08-07T21:00:44.228Z,51.91
2022-08-07T21:03:16.325Z,52.23
2022-08-07T21:05:56.509Z,52.08
2022-08-07T21:08:39.336Z,52.46
2022-08-07T21:11:14.204Z,51.94
2022-08-07T21:14:16.532Z,52.15
2022-08-07T21:16:56.850Z,52.16
2022-08-07T21:19:51.468Z,52.46
2022-08-07T21:22:30.724Z,52.64
2022-08-07T21:25:12.778Z,53.12
2022-08-07T21:28:10.173Z,53.96
2022-08-07T21:30:43.147Z,54.08
2022-08-07T21:33:22.502Z,54.17
2022-08-07T21:36:12.251Z,54.50
2022-08-07T21:39:05.559Z,54.79
2022-08-07T21:42:37.738Z,54.81
2022-08-07T21:46:08.452Z,55.33
2022-08-07T21:48:28.787Z,55.55
2022-08-07T21:51:27.967Z,56.27
2022-08-07T21:54:11.903Z,56.44
2022-08-07T21:57:39.308Z,56.68
2022-08-07T22:02:35.374Z,56.96
2022-08-07T22:05:05.081Z,56.87
2022-08-07T22:07:58.386Z,57.69
2022-08-07T22:10:27.756Z,57.94
2022-08-07T22:13:02.725Z,58.23
2022-08-07T22:16:35.820Z,58.16
2022-08-07T22:19:12.946Z,58.37
2022-08-07T22:22:05.321Z,59.27
2022-08-07T22:24:55.354Z,59.21
2022-08-07T22:28:03.000Z,59.66
2022-08-07T22:30:21.247Z,59.92
2022-08-07T22:33:13.053Z,60.19
2022-08-07T22:36:08.415Z,60.22
2022-08-07T22:39:02.223Z,60.35
2022-08-07T22:42:03.061Z,60.77
2022-08-07T22:44:29.591Z,60.74
2022-08-07T22:47:27.079Z,61.08
2022-08-07T22:50:07.347Z,60.67
2022-08-07T22:52:57.013Z,60.76
2022-08-07T22:55:45.691Z,61.14
2022-08-07T22:58:37.919Z,61.72
2022-08-07T23:01:23.398Z,62.31
2022-08-07T23:03:58.548Z,62.11
2022-08-07T23:06:40.546Z,61.91
2022-08-07T23:10:04.411Z,62.23
2022-08-07T23:12:34.039Z,62.96
2022-08-07T23:16:05.909Z,63.02
2022-08-07T23:19:13.746Z,63.57
2022-08-07T23:21:52.411Z,63.24
2022-08-07T23:24:45.752Z,63.57
2022-08-07T23:27:37.059Z,63.76
2022-08-07T23:31:05.489Z,64.25
2022-08-07T23:34:22.990Z,64.23
2022-08-07T23:37:20.414Z,64.98
2022-08-07T23:40:07.704Z,65.35
2022-08-07T23:42:46.665Z,65.58
2022-08-07T23:45:33.188Z,65.36
2022-08-07T23:48:33.140Z,65.34
2022-08-07T23:53:01.552Z,65.73
2022-08-07T23:54:19.597Z,65.90
2022-08-07T23:57:09.385Z,65.13
